Time;durP1;ratioP1;P1;durP2;ratioP2;P2;SDS_P1;SDS_P2;PMS_P1;PMS_P2;Temp;Humidity;BMP_temperature;BMP_pressure;BME280_temperature;BME280_humidity;BME280_pressure;Samples;Min_cycle;Max_cycle;Signal;HPM_P1;HPM_P2
2022/10/03 00:00:21;;;;;;;4.65;1.15;;;11.30;99.90;;;;;;5050746;28;20086;-76
2022/10/03 00:03:05;;;;;;;4.18;1.48;;;11.30;99.90;;;;;;5047339;28;20467;-77
2022/10/03 00:05:53;;;;;;;5.15;1.55;;;11.30;99.90;;;;;;5054387;28;20521;-76
2022/10/03 00:08:40;;;;;;;9.00;2.13;;;11.30;99.90;;;;;;5044113;28;20048;-76
2022/10/03 00:11:23;;;;;;;8.95;2.17;;;11.20;99.90;;;;;;5059608;28;20070;-78
2022/10/03 00:14:17;;;;;;;8.55;1.60;;;11.20;99.90;;;;;;5048364;28;20049;-77
2022/10/03 00:16:54;;;;;;;7.10;1.40;;;11.20;99.90;;;;;;5038075;28;20421;-77
2022/10/03 00:19:25;;;;;;;7.80;1.83;;;11.20;99.90;;;;;;5050543;28;20192;-77
2022/10/03 00:22:17;;;;;;;4.47;0.90;;;11.10;99.90;;;;;;5062741;28;20125;-77
2022/10/03 00:25:01;;;;;;;3.03;0.90;;;11.20;99.90;;;;;;5061270;28;20052;-78
2022/10/03 00:27:54;;;;;;;5.45;1.33;;;11.10;99.90;;;;;;5042518;28;20463;-78
2022/10/03 00:30:24;;;;;;;4.13;1.42;;;11.10;99.90;;;;;;5055332;28;20037;-78
2022/10/03 00:33:17;;;;;;;6.03;1.52;;;11.10;99.90;;;;;;5066595;28;20064;-77
2022/10/03 00:35:59;;;;;;;6.70;1.63;;;11.00;99.90;;;;;;5056858;28;20319;-78
2022/10/03 00:38:57;;;;;;;5.10;1.63;;;11.00;99.90;;;;;;5054930;28;20067;-77
2022/10/03 00:41:52;;;;;;;4.57;1.35;;;11.00;99.90;;;;;;5056388;28;20045;-77
2022/10/03 00:44:29;;;;;;;6.57;1.38;;;11.00;99.90;;;;;;5056709;28;20071;-78
2022/10/03 00:47:15;;;;;;;6.90;1.98;;;11.00;99.90;;;;;;5048759;28;20033;-77
2022/10/03 00:50:20;;;;;;;8.75;1.50;;;11.00;99.90;;;;;;5058830;28;20361;-77
2022/10/03 00:52:46;;;;;;;9.68;1.88;;;11.00;99.90;;;;;;5045193;28;20540;-78
2022/10/03 00:55:26;;;;;;;5.83;1.27;;;11.10;99.90;;;;;;5057901;28;20065;-78
2022/10/03 00:58:04;;;;;;;4.78;1.02;;;11.00;99.90;;;;;;5059323;28;20520;-77
2022/10/03 01:00:32;;;;;;;7.90;2.00;;;11.10;99.90;;;;;;5043777;28;20056;-77
2022/10/03 01:03:55;;;;;;;4.40;1.52;;;11.00;99.90;;;;;;5063548;28;20037;-77
2022/10/03 01:06:55;;;;;;;7.70;1.52;;;11.10;99.90;;;;;;5000391;28;20463;-77
2022/10/03 01:09:52;;;;;;;7.45;1.23;;;11.10;99.90;;;;;;4999411;28;20049;-77
2022/10/03 01:12:17;;;;;;;8.70;0.73;;;11.20;99.90;;;;;;5051536;28;20045;-77
2022/10/03 01:15:27;;;;;;;8.03;1.30;;;11.20;99.90;;;;;;5051977;28;20499;-78
2022/10/03 01:18:00;;;;;;;8.05;0.90;;;11.20;99.90;;;;;;5063524;28;20285;-77
2022/10/03 01:20:44;;;;;;;7.25;1.42;;;11.20;99.90;;;;;;5061526;28;20037;-77
2022/10/03 01:23:49;;;;;;;7.22;1.20;;;11.20;99.90;;;;;;5058242;28;20149;-77
2022/10/03 01:26:45;;;;;;;4.03;1.60;;;11.20;99.90;;;;;;5058521;28;20528;-77
2022/10/03 01:32:35;;;;;;;4.55;1.73;;;11.10;99.90;;;;;;5053888;28;20327;-78
2022/10/03 01:35:21;;;;;;;8.13;1.63;;;11.20;99.90;;;;;;5059371;28;20533;-77
2022/10/03 01:38:11;;;;;;;7.20;1.63;;;11.20;99.90;;;;;;5063459;28;20147;-77
2022/10/03 01:40:46;;;;;;;5.97;1.20;;;11.20;99.90;;;;;;5058056;28;20045;-77
2022/10/03 01:43:19;;;;;;;4.50;1.90;;;11.20;99.90;;;;;;5061830;28;20048;-77
2022/10/03 01:46:15;;;;;;;6.72;1.40;;;11.20;99.90;;;;;;5055897;28;20040;-77
2022/10/03 01:48:58;;;;;;;3.63;1.42;;;11.20;99.90;;;;;;5056290;28;20037;-78
2022/10/03 01:51:48;;;;;;;4.40;1.43;;;11.20;99.90;;;;;;5055999;28;20044;-77
2022/10/03 01:54:41;;;;;;;3.80;0.95;;;11.20;99.90;;;;;;5042438;28;20276;-77
2022/10/03 01:57:39;;;;;;;4.47;0.75;;;11.20;99.90;;;;;;5062277;28;20068;-77
2022/10/03 02:00:16;;;;;;;5.10;1.17;;;11.20;99.90;;;;;;5046011;28;20048;-77
2022/10/03 02:03:03;;;;;;;4.57;1.33;;;11.10;99.90;;;;;;5056498;28;20056;-78
2022/10/03 02:05:47;;;;;;;6.47;0.90;;;11.10;99.90;;;;;;5054116;28;20043;-78
2022/10/03 02:08:34;;;;;;;5.95;1.42;;;11.10;99.90;;;;;;5058561;28;20071;-78
2022/10/03 02:11:07;;;;;;;4.15;0.88;;;11.10;99.90;;;;;;5055869;28;20124;-77
2022/10/03 02:13:52;;;;;;;7.93;1.38;;;11.10;99.90;;;;;;5057160;28;20048;-77
2022/10/03 02:19:23;;;;;;;2.95;0.93;;;11.10;99.90;;;;;;5078754;28;20424;-75
2022/10/03 02:21:51;;;;;;;4.88;0.57;;;11.10;99.90;;;;;;5076370;28;20063;-75
2022/10/03 02:24:35;;;;;;;4.22;0.98;;;11.10;99.90;;;;;;5053843;28;20125;-75
2022/10/03 02:27:20;;;;;;;5.88;0.85;;;11.00;99.90;;;;;;5041791;28;20076;-76
2022/10/03 02:30:07;;;;;;;7.03;0.82;;;11.10;99.90;;;;;;5049882;28;20036;-76
2022/10/03 02:33:22;;;;;;;3.80;0.70;;;11.00;99.90;;;;;;5057373;28;20071;-76
2022/10/03 02:35:51;;;;;;;5.05;0.75;;;11.00;99.90;;;;;;5048865;28;20701;-76
2022/10/03 02:38:16;;;;;;;5.22;1.13;;;11.00;99.90;;;;;;5049026;28;20120;-76
2022/10/03 02:41:24;;;;;;;6.30;0.80;;;10.90;99.90;;;;;;5056662;28;20173;-76
2022/10/03 02:44:07;;;;;;;4.15;0.90;;;10.90;99.90;;;;;;5048993;28;20040;-76
2022/10/03 02:47:03;;;;;;;3.97;0.93;;;10.90;99.90;;;;;;5055098;28;20044;-76
2022/10/03 02:50:14;;;;;;;5.80;0.98;;;10.90;99.90;;;;;;5050028;28;20516;-76
2022/10/03 02:53:16;;;;;;;9.63;1.23;;;10.90;99.90;;;;;;5040334;28;20477;-76
2022/10/03 02:55:57;;;;;;;4.20;0.93;;;10.90;99.90;;;;;;5055609;28;20041;-76
2022/10/03 02:58:55;;;;;;;6.88;1.63;;;10.90;99.90;;;;;;5054708;28;20490;-76
2022/10/03 03:01:21;;;;;;;4.63;1.08;;;10.90;99.90;;;;;;5049846;28;20119;-75
2022/10/03 03:04:24;;;;;;;3.27;0.80;;;10.80;99.90;;;;;;5056569;28;20179;-76
2022/10/03 03:07:15;;;;;;;7.68;1.27;;;10.80;99.90;;;;;;5057727;28;20139;-76
2022/10/03 03:09:44;;;;;;;3.78;0.75;;;10.80;99.90;;;;;;5053656;28;20143;-76
2022/10/03 03:12:35;;;;;;;3.47;0.80;;;10.80;99.90;;;;;;5049673;28;20037;-75
2022/10/03 03:15:19;;;;;;;2.88;0.80;;;10.70;99.90;;;;;;5048395;28;20052;-75
2022/10/03 03:18:11;;;;;;;6.65;0.75;;;10.70;99.90;;;;;;5049034;28;20063;-76
2022/10/03 03:21:10;;;;;;;10.45;1.42;;;10.60;99.90;;;;;;5061648;28;20037;-76
2022/10/03 03:23:45;;;;;;;7.10;1.15;;;10.60;99.90;;;;;;5052917;28;20052;-76
2022/10/03 03:26:44;;;;;;;2.47;0.82;;;10.60;99.90;;;;;;5053807;28;20048;-76
2022/10/03 03:29:41;;;;;;;4.45;0.93;;;10.60;99.90;;;;;;5050544;28;20491;-76
2022/10/03 03:32:31;;;;;;;2.63;1.10;;;10.60;99.90;;;;;;5054976;28;20404;-76
2022/10/03 03:35:39;;;;;;;7.93;1.25;;;10.50;99.90;;;;;;5051910;28;20059;-75
2022/10/03 03:38:07;;;;;;;4.18;0.88;;;10.50;99.90;;;;;;5043460;28;20049;-76
2022/10/03 03:40:42;;;;;;;4.22;1.15;;;10.50;99.90;;;;;;5048599;28;20071;-76
2022/10/03 03:43:36;;;;;;;4.30;0.90;;;10.40;99.90;;;;;;5052290;28;20029;-76
2022/10/03 03:46:40;;;;;;;4.88;0.88;;;10.40;99.90;;;;;;5049989;28;20371;-75
2022/10/03 03:49:41;;;;;;;6.95;1.42;;;10.40;99.90;;;;;;5007085;28;20137;-76
2022/10/03 03:52:17;;;;;;;6.57;1.02;;;10.40;99.90;;;;;;5048131;28;20075;-76
2022/10/03 03:55:08;;;;;;;3.45;1.45;;;10.40;99.90;;;;;;5046838;28;20036;-76
2022/10/03 03:58:02;;;;;;;7.95;1.67;;;10.30;99.90;;;;;;5052650;28;20048;-76
2022/10/03 04:00:37;;;;;;;4.20;1.20;;;10.30;99.90;;;;;;5052731;28;20616;-75
2022/10/03 04:03:28;;;;;;;7.53;1.30;;;10.20;99.90;;;;;;5049527;28;20051;-75
2022/10/03 04:06:05;;;;;;;3.88;1.13;;;10.30;99.90;;;;;;5034630;28;20063;-76
2022/10/03 04:08:58;;;;;;;3.25;1.33;;;10.30;99.90;;;;;;5053726;28;20522;-76
2022/10/03 04:12:07;;;;;;;5.45;1.52;;;10.20;99.90;;;;;;5064743;28;20159;-76
2022/10/03 04:14:55;;;;;;;3.17;1.10;;;10.30;99.90;;;;;;5052362;28;20056;-76
2022/10/03 04:20:46;;;;;;;9.18;1.17;;;10.30;99.90;;;;;;5047130;28;20041;-76
2022/10/03 04:23:26;;;;;;;9.70;1.55;;;10.30;99.90;;;;;;5054005;28;20470;-76
2022/10/03 04:26:03;;;;;;;2.78;0.85;;;10.30;99.90;;;;;;5046709;28;20044;-76
2022/10/03 04:28:33;;;;;;;2.92;0.60;;;10.30;99.90;;;;;;5054733;28;20080;-76
2022/10/03 04:31:04;;;;;;;1.67;0.70;;;10.30;99.90;;;;;;5047642;28;20051;-76
2022/10/03 04:33:42;;;;;;;3.28;0.90;;;10.30;99.90;;;;;;5051092;28;20049;-76
2022/10/03 04:36:14;;;;;;;3.35;0.85;;;10.20;99.90;;;;;;5053545;28;20330;-76
2022/10/03 04:38:49;;;;;;;2.97;0.95;;;10.20;99.90;;;;;;5052951;28;20172;-76
2022/10/03 04:41:27;;;;;;;2.38;0.77;;;10.20;99.90;;;;;;5050047;28;20235;-76
2022/10/03 04:44:10;;;;;;;3.00;1.23;;;10.10;99.90;;;;;;5056355;28;20408;-76
2022/10/03 04:46:55;;;;;;;3.00;1.63;;;10.10;99.90;;;;;;5054305;28;20049;-76
2022/10/03 04:49:30;;;;;;;7.28;1.00;;;10.10;99.90;;;;;;5051277;28;20496;-76
2022/10/03 04:52:19;;;;;;;3.20;0.88;;;10.10;99.90;;;;;;5053994;28;20430;-76
2022/10/03 04:55:09;;;;;;;13.73;1.73;;;10.10;99.90;;;;;;5054182;28;20409;-76
2022/10/03 04:57:45;;;;;;;5.05;1.17;;;10.10;99.90;;;;;;5054267;28;20053;-76
2022/10/03 05:00:32;;;;;;;3.45;0.68;;;10.10;99.90;;;;;;5046841;28;20076;-76
2022/10/03 05:03:20;;;;;;;6.65;1.00;;;10.10;99.90;;;;;;5055313;28;20124;-76
2022/10/03 05:06:15;;;;;;;7.10;1.10;;;10.10;99.90;;;;;;5050938;28;20048;-76
2022/10/03 05:09:11;;;;;;;3.22;0.90;;;10.20;99.90;;;;;;5043556;28;20057;-76
2022/10/03 05:12:05;;;;;;;7.38;0.80;;;10.20;99.90;;;;;;5054703;28;20053;-76
2022/10/03 05:14:51;;;;;;;3.10;1.20;;;10.20;99.90;;;;;;5053577;28;20107;-76
2022/10/03 05:17:36;;;;;;;2.23;0.80;;;10.10;99.90;;;;;;5056668;28;20521;-76
2022/10/03 05:20:25;;;;;;;4.70;1.48;;;10.10;99.90;;;;;;5053958;28;20036;-76
2022/10/03 05:23:22;;;;;;;3.83;0.88;;;10.10;99.90;;;;;;5041257;28;20485;-76
2022/10/03 05:26:12;;;;;;;7.00;1.55;;;10.10;99.90;;;;;;5054674;28;20033;-76
2022/10/03 05:28:49;;;;;;;7.53;1.20;;;10.00;99.90;;;;;;5053294;28;20063;-77
2022/10/03 05:31:45;;;;;;;5.15;1.52;;;10.00;99.90;;;;;;5038315;28;20041;-76
2022/10/03 05:34:27;;;;;;;7.18;1.88;;;10.00;99.90;;;;;;5054377;28;20052;-76
2022/10/03 05:37:17;;;;;;;5.47;1.27;;;9.90;99.90;;;;;;5058889;28;20065;-76
2022/10/03 05:40:00;;;;;;;4.15;1.55;;;10.00;99.90;;;;;;5052740;28;20056;-76
2022/10/03 05:42:32;;;;;;;3.97;1.20;;;10.00;99.90;;;;;;5054673;28;20466;-76
2022/10/03 05:45:03;;;;;;;3.50;1.35;;;10.00;99.90;;;;;;5050849;28;20116;-78
2022/10/03 05:47:55;;;;;;;7.25;1.15;;;10.00;99.90;;;;;;5065653;28;20577;-77
2022/10/03 05:50:48;;;;;;;5.63;1.35;;;10.00;99.90;;;;;;5052268;28;20040;-77
2022/10/03 05:53:37;;;;;;;5.70;0.90;;;10.00;99.90;;;;;;5055738;28;20123;-77
2022/10/03 05:56:27;;;;;;;4.60;1.10;;;10.00;99.90;;;;;;5055897;28;20060;-76
2022/10/03 05:59:31;;;;;;;5.78;1.33;;;10.00;99.90;;;;;;5061120;28;20115;-76
2022/10/03 06:02:23;;;;;;;4.75;1.20;;;10.00;99.90;;;;;;5061758;28;20326;-77
2022/10/03 06:05:11;;;;;;;4.05;1.15;;;10.00;99.90;;;;;;5052610;28;20389;-76
2022/10/03 06:08:15;;;;;;;3.33;1.13;;;10.00;99.90;;;;;;5052523;28;20037;-76
2022/10/03 06:11:01;;;;;;;5.88;1.40;;;10.00;99.90;;;;;;4997583;28;20045;-77
2022/10/03 06:13:57;;;;;;;4.50;1.20;;;10.10;99.90;;;;;;5009089;28;20124;-77
2022/10/03 06:16:59;;;;;;;3.92;0.95;;;10.10;99.90;;;;;;5052124;28;20047;-76
2022/10/03 06:19:36;;;;;;;5.20;1.40;;;10.10;99.90;;;;;;5019460;28;20146;-77
2022/10/03 06:22:23;;;;;;;7.47;1.45;;;10.10;99.90;;;;;;5059340;28;20485;-77
2022/10/03 06:24:55;;;;;;;4.78;1.67;;;10.10;99.90;;;;;;5057280;28;20494;-77
2022/10/03 06:27:36;;;;;;;8.77;1.70;;;10.20;99.90;;;;;;5054472;28;20045;-76
2022/10/03 06:30:34;;;;;;;6.07;1.70;;;10.20;99.90;;;;;;5053292;28;20052;-76
2022/10/03 06:33:30;;;;;;;4.15;1.50;;;10.20;99.90;;;;;;5045330;28;20535;-76
2022/10/03 06:36:05;;;;;;;6.35;1.38;;;10.20;99.90;;;;;;5050207;28;20051;-76
2022/10/03 06:39:08;;;;;;;12.23;2.38;;;10.20;99.90;;;;;;5078926;28;20041;-76
2022/10/03 06:42:23;;;;;;;3.97;1.73;;;10.20;99.90;;;;;;5056105;28;20044;-76
2022/10/03 06:45:00;;;;;;;6.20;1.58;;;10.30;99.90;;;;;;5056985;28;20102;-76
2022/10/03 06:48:16;;;;;;;7.05;1.77;;;10.30;99.90;;;;;;5059646;28;20048;-76
2022/10/03 06:50:45;;;;;;;2.83;1.27;;;10.30;99.90;;;;;;4995569;28;20048;-76
2022/10/03 06:53:29;;;;;;;8.45;3.20;;;10.40;99.90;;;;;;5023006;28;20525;-76
2022/10/03 06:56:20;;;;;;;10.52;4.45;;;10.50;99.90;;;;;;5050327;28;20065;-76
2022/10/03 06:59:24;;;;;;;7.15;3.15;;;10.50;99.90;;;;;;5077783;28;20081;-76
2022/10/03 07:02:21;;;;;;;7.47;2.63;;;10.60;99.90;;;;;;5041015;28;20302;-76
2022/10/03 07:05:34;;;;;;;5.95;2.10;;;10.60;99.90;;;;;;5055107;28;20045;-76
2022/10/03 07:08:15;;;;;;;7.65;2.30;;;10.60;99.90;;;;;;5042630;28;20124;-76
2022/10/03 07:10:59;;;;;;;3.80;1.20;;;10.70;99.90;;;;;;5047999;28;20130;-76
2022/10/03 07:13:52;;;;;;;6.53;1.05;;;10.70;99.90;;;;;;5053001;28;20055;-76
2022/10/03 07:16:47;;;;;;;6.72;1.83;;;10.80;99.90;;;;;;5060377;28;20081;-76
2022/10/03 07:19:38;;;;;;;4.05;1.17;;;10.90;99.90;;;;;;5061476;28;20048;-76
2022/10/03 07:22:28;;;;;;;2.92;1.23;;;11.00;99.90;;;;;;5053136;28;20079;-77
2022/10/03 07:24:59;;;;;;;5.13;1.30;;;11.10;99.90;;;;;;5055159;28;20041;-76
2022/10/03 07:27:57;;;;;;;3.58;1.17;;;11.10;99.90;;;;;;5057223;28;20151;-76
2022/10/03 07:30:26;;;;;;;6.38;1.02;;;11.20;99.90;;;;;;5037236;28;20055;-76
2022/10/03 07:33:31;;;;;;;2.80;1.13;;;11.30;99.90;;;;;;5046638;28;20613;-76
2022/10/03 07:39:33;;;;;;;6.32;1.70;;;11.50;99.90;;;;;;5048980;28;20037;-76
2022/10/03 07:42:20;;;;;;;5.20;1.33;;;11.50;99.90;;;;;;5066238;28;20050;-76
2022/10/03 07:45:22;;;;;;;7.25;1.27;;;11.60;99.90;;;;;;5050262;28;20482;-77
2022/10/03 07:47:53;;;;;;;5.03;1.00;;;11.70;99.90;;;;;;5037902;28;20105;-76
2022/10/03 07:50:40;;;;;;;8.70;1.48;;;11.80;99.90;;;;;;5050562;28;20423;-76
2022/10/03 07:53:24;;;;;;;7.30;1.00;;;11.90;99.90;;;;;;5050623;28;20079;-77
2022/10/03 07:56:20;;;;;;;5.32;1.02;;;12.00;99.90;;;;;;5051434;28;20115;-76
2022/10/03 07:58:58;;;;;;;6.45;1.73;;;12.10;99.90;;;;;;5059930;28;20308;-77
2022/10/03 08:01:54;;;;;;;4.00;1.40;;;12.20;99.90;;;;;;5056772;28;20033;-77
2022/10/03 08:04:46;;;;;;;4.57;1.35;;;12.30;99.90;;;;;;5045813;28;20128;-76
2022/10/03 08:07:31;;;;;;;5.05;1.20;;;12.30;99.90;;;;;;5058799;28;20049;-76
2022/10/03 08:10:21;;;;;;;5.15;0.80;;;12.40;99.90;;;;;;5052627;28;20055;-77
2022/10/03 08:12:52;;;;;;;3.90;0.98;;;12.50;99.90;;;;;;5056123;28;20044;-77
2022/10/03 08:15:47;;;;;;;7.63;1.27;;;12.60;99.90;;;;;;5046572;28;20051;-77
2022/10/03 08:18:25;;;;;;;3.13;0.90;;;12.80;99.90;;;;;;5089495;22;20129;-83
2022/10/03 08:21:04;;;;;;;5.00;0.90;;;12.70;99.90;;;;;;5074706;28;20040;-82
2022/10/03 08:24:04;;;;;;;3.83;1.15;;;12.90;99.90;;;;;;5062422;28;20079;-81
2022/10/03 08:27:03;;;;;;;8.52;1.08;;;12.90;99.90;;;;;;5063614;28;20071;-81
2022/10/03 08:29:47;;;;;;;5.15;0.90;;;13.00;99.90;;;;;;5060813;28;20127;-80
2022/10/03 08:32:28;;;;;;;3.10;1.00;;;13.20;99.90;;;;;;5060669;28;20198;-80
2022/10/03 08:35:22;;;;;;;3.47;1.00;;;13.20;99.90;;;;;;5052659;28;20043;-80
2022/10/03 08:38:18;;;;;;;6.35;1.33;;;13.30;99.90;;;;;;5058884;28;20032;-81
2022/10/03 08:41:12;;;;;;;8.82;0.90;;;13.50;99.90;;;;;;5062462;28;20028;-79
2022/10/03 08:43:59;;;;;;;6.90;0.90;;;13.50;99.90;;;;;;5069753;28;20040;-79
2022/10/03 08:46:34;;;;;;;2.10;0.82;;;13.60;99.90;;;;;;5062589;28;20557;-82
2022/10/03 08:49:27;;;;;;;8.35;1.20;;;13.70;99.90;;;;;;5064273;28;20048;-80
2022/10/03 08:52:28;;;;;;;5.03;0.77;;;13.70;99.90;;;;;;5067012;28;20059;-83
2022/10/03 08:55:30;;;;;;;5.13;0.75;;;13.80;99.90;;;;;;5057106;28;20029;-80
2022/10/03 08:58:37;;;;;;;2.97;1.10;;;14.00;99.90;;;;;;5044320;28;20072;-82
2022/10/03 09:01:24;;;;;;;4.80;0.77;;;14.10;99.90;;;;;;5067771;28;20032;-80
2022/10/03 09:04:08;;;;;;;7.25;1.02;;;14.10;99.90;;;;;;5066633;28;20213;-80
2022/10/03 09:06:58;;;;;;;5.07;1.20;;;14.20;99.90;;;;;;5063143;28;20044;-81
2022/10/03 09:09:49;;;;;;;4.50;1.23;;;14.30;99.90;;;;;;5059340;28;20051;-79
2022/10/03 09:12:34;;;;;;;4.25;0.68;;;14.40;99.90;;;;;;5080460;28;20253;-80
2022/10/03 09:15:28;;;;;;;4.55;0.77;;;14.50;99.90;;;;;;5060532;28;20036;-83
2022/10/03 09:18:05;;;;;;;4.30;0.75;;;14.60;99.90;;;;;;5060782;28;20041;-82
2022/10/03 09:21:10;;;;;;;2.75;0.70;;;14.60;99.90;;;;;;5063544;28;20360;-82
2022/10/03 09:24:17;;;;;;;4.93;0.63;;;14.70;99.90;;;;;;5061082;28;20041;-81
2022/10/03 09:27:04;;;;;;;2.28;0.50;;;14.80;99.90;;;;;;5043926;28;20101;-81
2022/10/03 09:29:51;;;;;;;1.52;0.40;;;14.90;99.90;;;;;;5060495;28;20141;-80
2022/10/03 09:32:34;;;;;;;;;;;15.00;99.90;;;;;;5045212;28;20608;-81
2022/10/03 09:35:26;;;;;;;3.85;0.57;;;15.10;99.90;;;;;;5064878;28;19916;-81
2022/10/03 09:38:20;;;;;;;3.80;0.80;;;15.20;99.90;;;;;;5063459;28;20131;-81
2022/10/03 09:41:13;;;;;;;4.22;0.50;;;15.20;99.90;;;;;;5047750;28;20416;-81
2022/10/03 09:44:08;;;;;;;2.40;0.50;;;15.30;99.90;;;;;;5051408;28;20036;-82
2022/10/03 09:46:33;;;;;;;1.20;0.50;;;15.40;99.90;;;;;;5034955;28;20102;-82
2022/10/03 09:49:20;;;;;;;2.72;0.35;;;15.40;99.90;;;;;;5042914;28;20040;-81
2022/10/03 09:52:28;;;;;;;2.45;0.50;;;15.40;99.90;;;;;;5044711;28;20049;-84
2022/10/03 09:55:11;;;;;;;4.10;0.50;;;15.50;99.90;;;;;;5053832;28;20029;-82
2022/10/03 09:57:52;;;;;;;6.18;0.55;;;15.60;99.90;;;;;;5041655;28;20072;-82
2022/10/03 10:00:47;;;;;;;2.38;0.88;;;15.60;99.90;;;;;;5050044;28;20047;-82
2022/10/03 10:03:53;;;;;;;5.47;1.10;;;15.70;99.90;;;;;;5044525;28;20032;-80
2022/10/03 10:06:37;;;;;;;3.40;0.68;;;15.80;99.90;;;;;;5050372;28;20063;-80
2022/10/03 10:09:29;;;;;;;2.80;0.55;;;15.80;99.90;;;;;;5081102;28;20645;-83
2022/10/03 10:12:18;;;;;;;4.32;0.70;;;15.90;99.90;;;;;;5079221;28;20036;-83
2022/10/03 10:15:34;;;;;;;4.32;0.43;;;15.90;99.90;;;;;;5028773;28;20080;-83
2022/10/03 10:18:18;;;;;;;2.78;0.80;;;16.00;99.90;;;;;;5062160;28;20364;-85
2022/10/03 10:20:49;;;;;;;4.15;1.05;;;16.00;99.90;;;;;;5045579;28;20504;-83
2022/10/03 10:23:54;;;;;;;3.60;0.60;;;16.00;99.90;;;;;;5050010;28;20102;-81
2022/10/03 10:27:03;;;;;;;3.10;0.57;;;16.10;99.90;;;;;;5064416;28;20562;-82
2022/10/03 10:29:57;;;;;;;1.77;0.40;;;16.20;99.90;;;;;;5061375;28;20041;-80
2022/10/03 10:33:01;;;;;;;3.22;1.13;;;16.20;99.90;;;;;;5052413;28;20037;-84
2022/10/03 10:35:55;;;;;;;4.70;0.50;;;16.20;99.90;;;;;;5061834;28;20049;-84
2022/10/03 10:38:59;;;;;;;3.08;0.70;;;16.30;99.90;;;;;;5078096;28;20032;-82
2022/10/03 10:41:46;;;;;;;5.22;0.70;;;16.40;99.90;;;;;;5053982;28;20051;-81
2022/10/03 10:44:55;;;;;;;3.67;0.80;;;16.40;99.90;;;;;;5064490;28;20036;-82
2022/10/03 10:47:52;;;;;;;4.53;0.68;;;16.50;99.90;;;;;;5054979;28;20410;-82
2022/10/03 10:50:54;;;;;;;3.35;0.55;;;16.50;99.90;;;;;;5048761;28;20033;-81
2022/10/03 10:53:58;;;;;;;2.67;0.70;;;16.50;99.90;;;;;;5057702;28;20043;-83
2022/10/03 10:56:48;;;;;;;6.97;0.60;;;16.50;99.90;;;;;;5038157;28;20451;-83
2022/10/03 10:59:48;;;;;;;2.95;0.60;;;16.50;99.90;;;;;;5057637;28;20129;-85
2022/10/03 11:02:42;;;;;;;3.25;0.75;;;16.40;99.90;;;;;;5058623;28;20115;-81
2022/10/03 11:05:45;;;;;;;6.00;0.80;;;16.50;99.90;;;;;;5071194;28;20048;-82
2022/10/03 11:08:36;;;;;;;2.00;0.82;;;16.50;99.90;;;;;;5071824;28;20044;-83
2022/10/03 11:11:40;;;;;;;2.30;0.73;;;16.60;99.90;;;;;;5051231;28;20108;-81
2022/10/03 11:14:09;;;;;;;4.60;0.60;;;16.60;99.90;;;;;;5050608;28;20052;-80
2022/10/03 11:17:12;;;;;;;2.33;0.75;;;16.70;99.90;;;;;;5065008;28;20146;-85
2022/10/03 11:20:02;;;;;;;3.15;1.00;;;16.80;99.90;;;;;;5063496;28;20043;-82
2022/10/03 11:23:07;;;;;;;3.28;0.82;;;16.90;99.90;;;;;;5063425;28;20457;-83
2022/10/03 11:26:17;;;;;;;3.28;0.90;;;17.00;99.90;;;;;;5063480;28;20040;-84
2022/10/03 11:29:16;;;;;;;3.03;0.70;;;17.20;99.90;;;;;;5059046;28;20492;-82
2022/10/03 11:32:11;;;;;;;4.53;1.13;;;17.20;99.90;;;;;;5045229;28;20040;-85
2022/10/03 11:35:25;;;;;;;3.17;0.80;;;17.10;99.90;;;;;;5060706;28;20124;-85
2022/10/03 11:38:11;;;;;;;3.30;0.88;;;17.00;99.90;;;;;;5054530;28;20428;-81
2022/10/03 11:41:05;;;;;;;4.15;0.65;;;17.00;99.90;;;;;;5059852;28;20059;-85
2022/10/03 11:43:49;;;;;;;4.75;0.70;;;17.10;99.90;;;;;;5059956;28;20367;-81
2022/10/03 11:46:21;;;;;;;3.35;0.60;;;17.10;99.90;;;;;;5060089;28;20046;-83
2022/10/03 11:49:09;;;;;;;3.05;0.55;;;17.10;99.90;;;;;;5060148;28;20036;-83
2022/10/03 11:51:47;;;;;;;1.20;0.32;;;17.00;99.90;;;;;;5047463;28;20479;-84
2022/10/03 11:54:28;;;;;;;2.15;0.50;;;17.00;99.90;;;;;;5042710;28;20178;-83
2022/10/03 11:57:01;;;;;;;3.95;1.58;;;16.90;99.90;;;;;;5042997;28;20452;-83
2022/10/03 11:59:43;;;;;;;2.40;0.50;;;16.90;99.90;;;;;;5060025;28;20104;-80
2022/10/03 12:02:59;;;;;;;3.90;0.50;;;16.90;99.90;;;;;;5038684;28;20044;-84
2022/10/03 12:05:52;;;;;;;4.07;0.70;;;16.90;99.90;;;;;;5044176;28;20129;-81
2022/10/03 12:08:58;;;;;;;2.00;0.60;;;16.90;99.90;;;;;;5045346;28;20044;-82
2022/10/03 12:11:50;;;;;;;5.85;0.75;;;17.00;99.90;;;;;;5063255;28;20044;-83
2022/10/03 12:14:31;;;;;;;4.55;0.60;;;16.90;99.90;;;;;;5075731;28;20082;-81
2022/10/03 12:17:18;;;;;;;4.18;0.63;;;16.90;99.90;;;;;;5037337;28;20036;-80
2022/10/03 12:20:22;;;;;;;5.63;0.52;;;16.90;99.90;;;;;;5048478;28;20059;-84
2022/10/03 12:23:33;;;;;;;1.23;0.43;;;16.90;99.90;;;;;;5046925;28;20064;-84
2022/10/03 12:26:30;;;;;;;1.25;0.65;;;16.90;99.90;;;;;;5047591;28;20055;-81
2022/10/03 12:29:13;;;;;;;6.22;0.80;;;16.90;99.90;;;;;;5069215;28;20056;-84
2022/10/03 12:32:20;;;;;;;3.63;1.10;;;16.90;99.90;;;;;;5068610;28;20111;-85
2022/10/03 12:35:15;;;;;;;2.85;0.80;;;17.00;99.90;;;;;;5060800;28;20076;-82
2022/10/03 12:38:06;;;;;;;3.97;0.50;;;17.00;99.90;;;;;;5069398;22;20062;-75
2022/10/03 12:40:50;;;;;;;3.75;0.50;;;17.00;99.90;;;;;;5051689;28;20532;-76
2022/10/03 12:43:34;;;;;;;2.45;0.63;;;17.00;99.90;;;;;;5038579;28;20048;-76
2022/10/03 12:46:04;;;;;;;3.80;0.57;;;17.10;99.90;;;;;;5036194;28;20131;-75
2022/10/03 12:48:58;;;;;;;1.30;0.50;;;17.20;99.90;;;;;;5011990;28;20071;-75
2022/10/03 12:51:38;;;;;;;2.20;0.52;;;17.20;99.90;;;;;;5034682;28;20045;-75
2022/10/03 12:54:10;;;;;;;2.40;0.47;;;17.20;99.90;;;;;;5032602;28;20534;-76
2022/10/03 12:57:00;;;;;;;2.15;0.52;;;17.20;99.90;;;;;;5031138;28;20144;-75
2022/10/03 12:59:34;;;;;;;3.25;0.95;;;17.20;99.90;;;;;;5021978;28;20113;-76
2022/10/03 13:02:18;;;;;;;3.60;0.82;;;17.30;99.90;;;;;;5041831;28;20044;-75
2022/10/03 13:05:08;;;;;;;3.42;0.80;;;17.30;99.90;;;;;;5036903;28;20125;-75
2022/10/03 13:07:55;;;;;;;6.90;0.80;;;17.40;99.90;;;;;;5035441;28;20037;-76
2022/10/03 13:10:36;;;;;;;3.88;0.90;;;17.30;99.90;;;;;;5046635;28;20041;-75
2022/10/03 13:13:19;;;;;;;4.43;0.82;;;17.30;99.90;;;;;;5031074;28;20199;-75
2022/10/03 13:15:52;;;;;;;4.45;0.60;;;17.30;99.90;;;;;;5048559;28;20487;-75
2022/10/03 13:18:38;;;;;;;4.30;0.82;;;17.30;99.90;;;;;;5033271;28;20052;-75
2022/10/03 13:21:41;;;;;;;2.50;0.50;;;17.40;99.90;;;;;;5036650;28;20427;-75
2022/10/03 13:24:25;;;;;;;2.50;0.50;;;17.60;99.90;;;;;;5040985;28;20041;-75
2022/10/03 13:27:36;;;;;;;3.78;0.50;;;17.70;99.90;;;;;;5031858;28;20398;-76
2022/10/03 13:30:12;;;;;;;1.63;0.50;;;17.70;99.90;;;;;;5045984;28;20207;-75
2022/10/03 13:32:41;;;;;;;2.93;0.60;;;17.80;99.90;;;;;;5037194;28;21574;-76
2022/10/03 13:38:15;;;;;;;1.45;0.50;;;17.80;99.90;;;;;;5038673;28;20144;-75
2022/10/03 13:40:56;;;;;;;2.95;0.32;;;17.80;99.90;;;;;;5053100;28;20120;-75
2022/10/03 13:43:34;;;;;;;3.95;0.40;;;17.80;99.90;;;;;;5034159;28;20045;-75
2022/10/03 13:46:07;;;;;;;2.65;0.77;;;17.90;99.90;;;;;;5037211;28;20128;-75
2022/10/03 13:48:34;;;;;;;2.60;0.90;;;18.00;99.90;;;;;;5036663;28;20470;-76
2022/10/03 13:51:23;;;;;;;3.20;0.73;;;18.00;99.90;;;;;;5035325;28;20037;-75
2022/10/03 13:54:12;;;;;;;2.15;0.55;;;17.90;99.90;;;;;;5027108;28;20502;-75
2022/10/03 13:56:55;;;;;;;2.97;0.85;;;17.90;99.90;;;;;;5036106;28;20044;-76
2022/10/03 13:59:23;;;;;;;4.57;0.43;;;17.90;99.90;;;;;;5030923;28;20048;-75
2022/10/03 14:01:59;;;;;;;2.38;0.50;;;17.90;99.90;;;;;;5038467;28;20041;-75
2022/10/03 14:04:39;;;;;;;2.85;0.30;;;17.90;99.90;;;;;;5014572;28;20648;-75
2022/10/03 14:07:21;;;;;;;3.00;0.43;;;17.90;99.90;;;;;;5029911;28;20034;-76
2022/10/03 14:10:27;;;;;;;2.20;0.52;;;17.90;99.90;;;;;;5028270;28;20656;-75
2022/10/03 14:13:15;;;;;;;3.40;0.60;;;17.90;99.90;;;;;;5038492;28;20045;-77
2022/10/03 14:16:20;;;;;;;1.17;0.30;;;17.80;99.90;;;;;;5039768;28;20323;-75
2022/10/03 14:18:51;;;;;;;4.22;0.77;;;17.70;99.90;;;;;;5058266;22;20086;-72
2022/10/03 14:21:36;;;;;;;2.70;0.55;;;17.50;99.90;;;;;;5059072;28;20632;-72
2022/10/03 14:24:10;;;;;;;3.45;0.50;;;17.50;99.90;;;;;;5063759;28;20036;-72
2022/10/03 14:27:13;;;;;;;2.80;0.55;;;17.40;99.90;;;;;;5064712;28;20361;-72
2022/10/03 14:29:54;;;;;;;2.75;0.63;;;17.30;99.90;;;;;;5059572;28;20040;-72
2022/10/03 14:32:26;;;;;;;3.47;0.50;;;17.30;99.90;;;;;;5063828;28;20080;-73
2022/10/03 14:35:28;;;;;;;1.98;0.40;;;17.20;99.90;;;;;;5064496;28;20082;-72
2022/10/03 14:38:57;;;;;;;1.98;0.50;;;17.20;99.90;;;;;;5056505;28;20040;-72
2022/10/03 14:41:32;;;;;;;;;;;17.20;99.90;;;;;;5049137;28;20050;-72
2022/10/03 14:44:04;;;;;;;5.40;1.08;;;17.10;99.90;;;;;;5061805;28;19985;-72
2022/10/03 14:46:37;;;;;;;3.80;1.02;;;17.10;99.90;;;;;;5063769;28;20040;-72
2022/10/03 14:49:06;;;;;;;1.40;0.60;;;17.10;99.90;;;;;;5065766;28;20044;-72
2022/10/03 14:51:59;;;;;;;1.40;0.43;;;17.10;99.90;;;;;;5064928;28;20143;-72